createdAt,value
2023-05-17T00:00:37.568Z,14.84
2023-05-17T00:01:40.468Z,14.77
2023-05-17T00:02:43.548Z,14.74
2023-05-17T00:03:46.769Z,14.70
2023-05-17T00:04:49.776Z,14.72
2023-05-17T00:05:53.530Z,14.68
2023-05-17T00:06:56.378Z,14.71
2023-05-17T00:07:59.323Z,14.69
2023-05-17T00:09:02.399Z,14.72
2023-05-17T00:10:05.663Z,14.70
2023-05-17T00:11:08.766Z,14.71
2023-05-17T00:12:11.829Z,14.75
2023-05-17T00:13:14.654Z,14.71
2023-05-17T00:14:17.678Z,14.67
2023-05-17T00:15:20.514Z,14.63
2023-05-17T00:16:23.559Z,14.72
2023-05-17T00:17:26.403Z,14.68
2023-05-17T00:18:29.441Z,14.70
2023-05-17T00:19:32.480Z,14.76
2023-05-17T00:20:36.153Z,15.01
2023-05-17T00:21:39.126Z,15.13
2023-05-17T00:22:43.604Z,14.90
2023-05-17T00:23:46.574Z,14.62
2023-05-17T00:24:49.572Z,14.45
2023-05-17T00:25:52.437Z,14.44
2023-05-17T00:26:55.176Z,14.40
2023-05-17T00:27:58.101Z,14.32
2023-05-17T00:29:01.132Z,14.32
2023-05-17T00:30:04.556Z,14.30
2023-05-17T00:31:08.585Z,14.27
2023-05-17T00:32:11.484Z,14.22
2023-05-17T00:33:14.401Z,14.27
2023-05-17T00:34:17.519Z,14.25
2023-05-17T00:35:20.551Z,14.19
2023-05-17T00:36:23.600Z,14.16
2023-05-17T00:37:26.409Z,14.10
2023-05-17T00:38:29.449Z,14.03
2023-05-17T00:39:32.283Z,13.99
2023-05-17T00:40:35.174Z,13.95
2023-05-17T00:41:38.125Z,13.97
2023-05-17T00:42:41.419Z,14.01
2023-05-17T00:43:44.355Z,13.97
2023-05-17T00:44:47.371Z,13.90
2023-05-17T00:45:52.142Z,14.00
2023-05-17T00:46:55.133Z,14.03
2023-05-17T00:47:58.437Z,14.03
2023-05-17T00:49:01.609Z,13.99
2023-05-17T00:50:06.609Z,13.89
2023-05-17T00:51:10.084Z,13.80
2023-05-17T00:52:13.225Z,13.84
2023-05-17T00:53:16.751Z,13.87
2023-05-17T00:54:20.081Z,13.86
2023-05-17T00:55:23.136Z,13.81
2023-05-17T00:56:26.314Z,13.75
2023-05-17T00:57:29.972Z,13.70
2023-05-17T00:58:34.118Z,13.63
2023-05-17T00:59:38.363Z,13.61
2023-05-17T01:00:42.354Z,13.67
2023-05-17T01:01:45.880Z,13.62
2023-05-17T01:02:49.204Z,13.65
2023-05-17T01:03:52.622Z,13.69
2023-05-17T01:04:55.905Z,13.68
2023-05-17T01:05:58.836Z,13.73
2023-05-17T01:07:01.911Z,13.80
2023-05-17T01:08:05.065Z,13.81
2023-05-17T01:09:08.747Z,13.79
2023-05-17T01:10:12.268Z,13.73
2023-05-17T01:11:24.280Z,13.71
2023-05-17T01:12:49.967Z,13.64
2023-05-17T01:14:30.506Z,13.63
2023-05-17T01:15:39.099Z,13.64
2023-05-17T01:16:51.860Z,13.54
2023-05-17T01:18:18.917Z,13.58
2023-05-17T01:19:46.590Z,13.68
2023-05-17T01:20:53.576Z,13.69
2023-05-17T01:22:28.526Z,13.71
2023-05-17T01:23:36.287Z,13.70
2023-05-17T01:24:51.411Z,13.77
2023-05-17T01:26:05.174Z,13.81
2023-05-17T01:27:11.383Z,13.79
2023-05-17T01:28:15.249Z,13.84
2023-05-17T01:29:19.545Z,13.83
2023-05-17T01:30:26.143Z,13.79
2023-05-17T01:31:31.280Z,13.79
2023-05-17T01:32:34.323Z,13.81
2023-05-17T01:33:38.701Z,13.81
2023-05-17T01:34:42.111Z,13.81
2023-05-17T01:35:45.145Z,13.80
2023-05-17T01:36:48.036Z,13.80
2023-05-17T01:37:52.974Z,13.87
2023-05-17T01:38:56.095Z,13.83
2023-05-17T01:39:59.147Z,13.79
2023-05-17T01:41:14.493Z,13.82
2023-05-17T01:42:23.288Z,13.80
2023-05-17T01:43:52.347Z,13.87
2023-05-17T01:45:32.514Z,13.88
2023-05-17T01:46:44.356Z,13.85
2023-05-17T01:48:17.566Z,13.78
2023-05-17T01:49:38.974Z,13.64
2023-05-17T01:50:43.558Z,13.50
2023-05-17T01:52:07.239Z,13.50
2023-05-17T01:53:16.022Z,13.54
2023-05-17T01:54:25.201Z,13.58
2023-05-17T01:55:46.585Z,13.57
2023-05-17T01:57:00.802Z,13.56
2023-05-17T01:58:08.151Z,13.54
2023-05-17T01:59:16.054Z,13.49
2023-05-17T02:00:19.992Z,13.51
2023-05-17T02:01:24.872Z,13.54
2023-05-17T02:02:28.647Z,13.52
2023-05-17T02:03:31.680Z,13.46
2023-05-17T02:04:35.312Z,13.39
2023-05-17T02:05:38.250Z,13.37
2023-05-17T02:06:41.116Z,13.33
2023-05-17T02:07:44.116Z,13.40
2023-05-17T02:08:46.989Z,13.37
2023-05-17T02:09:49.948Z,13.36
2023-05-17T02:10:52.791Z,13.32
2023-05-17T02:11:56.073Z,13.30
2023-05-17T02:12:58.916Z,13.21
2023-05-17T02:14:01.814Z,13.14
2023-05-17T02:15:05.278Z,13.15
2023-05-17T02:16:08.323Z,13.19
2023-05-17T02:17:11.314Z,13.17
2023-05-17T02:18:14.328Z,13.18
2023-05-17T02:19:17.483Z,13.17
2023-05-17T02:20:20.462Z,13.16
2023-05-17T02:21:23.290Z,13.15
2023-05-17T02:22:26.203Z,13.13
2023-05-17T02:23:29.172Z,13.16
2023-05-17T02:24:32.033Z,13.10
2023-05-17T02:25:34.904Z,13.07
2023-05-17T02:26:37.658Z,13.04
2023-05-17T02:27:40.874Z,13.07
2023-05-17T02:28:43.778Z,13.01
2023-05-17T02:29:46.688Z,12.97
2023-05-17T02:30:49.566Z,12.93
2023-05-17T02:31:52.450Z,12.95
2023-05-17T02:32:57.372Z,13.00
2023-05-17T02:34:00.658Z,13.02
2023-05-17T02:35:03.919Z,13.05
2023-05-17T02:36:07.344Z,13.05
2023-05-17T02:37:10.448Z,13.00
2023-05-17T02:38:13.354Z,12.98
2023-05-17T02:39:16.349Z,12.96
2023-05-17T02:40:19.262Z,12.94
2023-05-17T02:41:22.230Z,12.99
2023-05-17T02:42:25.120Z,13.08
2023-05-17T02:43:28.021Z,13.06
2023-05-17T02:44:30.959Z,13.07
2023-05-17T02:45:33.926Z,13.04
2023-05-17T02:46:38.439Z,13.02
2023-05-17T02:47:41.814Z,13.01
2023-05-17T02:48:44.871Z,13.00
2023-05-17T02:49:48.430Z,13.02
2023-05-17T02:50:51.395Z,13.02
2023-05-17T02:51:54.595Z,13.01
2023-05-17T02:52:57.511Z,13.04
2023-05-17T02:54:00.630Z,13.04
2023-05-17T02:55:04.809Z,13.02
2023-05-17T02:56:08.682Z,13.03
2023-05-17T02:57:11.536Z,13.00
2023-05-17T02:58:14.410Z,12.92
2023-05-17T02:59:17.292Z,12.86
2023-05-17T03:00:20.351Z,12.87
2023-05-17T03:01:23.605Z,12.85
2023-05-17T03:02:27.299Z,12.84
2023-05-17T03:03:30.408Z,12.87
2023-05-17T03:04:34.168Z,12.85
2023-05-17T03:05:37.172Z,12.82
2023-05-17T03:06:40.122Z,12.79
2023-05-17T03:07:42.825Z,12.79
2023-05-17T03:08:46.326Z,12.84
2023-05-17T03:09:49.250Z,12.88
2023-05-17T03:10:52.532Z,12.90
2023-05-17T03:11:55.843Z,12.84
2023-05-17T03:12:58.978Z,12.75
2023-05-17T03:14:02.062Z,12.74
2023-05-17T03:15:05.405Z,12.70
2023-05-17T03:16:09.767Z,12.72
2023-05-17T03:17:12.624Z,12.69
2023-05-17T03:18:15.736Z,12.70
2023-05-17T03:19:18.919Z,12.73
2023-05-17T03:20:22.079Z,12.70
2023-05-17T03:21:25.117Z,12.70
2023-05-17T03:22:28.386Z,12.72
2023-05-17T03:23:31.386Z,12.74
2023-05-17T03:24:34.426Z,12.76
2023-05-17T03:25:37.350Z,12.80
2023-05-17T03:26:40.258Z,12.85
2023-05-17T03:27:43.431Z,12.96
2023-05-17T03:28:47.010Z,12.99
2023-05-17T03:29:49.938Z,12.99
2023-05-17T03:30:53.193Z,13.03
2023-05-17T03:31:56.121Z,13.06
2023-05-17T03:32:59.114Z,13.07
2023-05-17T03:34:02.230Z,13.09
2023-05-17T03:35:05.744Z,13.11
2023-05-17T03:36:08.839Z,13.11
2023-05-17T03:37:11.726Z,13.08
2023-05-17T03:38:14.592Z,13.10
2023-05-17T03:39:17.659Z,13.13
2023-05-17T03:40:20.557Z,13.13
2023-05-17T03:41:23.613Z,13.15
2023-05-17T03:42:26.599Z,13.19
2023-05-17T03:43:29.516Z,13.23
2023-05-17T03:44:32.329Z,13.24
2023-05-17T03:45:35.167Z,13.25
2023-05-17T03:46:38.193Z,13.28
2023-05-17T03:47:43.364Z,13.30
2023-05-17T03:48:46.385Z,13.31
2023-05-17T03:49:49.451Z,13.34
2023-05-17T03:50:52.431Z,13.39
2023-05-17T03:51:55.472Z,13.40
2023-05-17T03:52:58.760Z,13.45
2023-05-17T03:54:01.998Z,13.48
2023-05-17T03:55:05.213Z,13.48
2023-05-17T03:56:08.419Z,13.49
2023-05-17T03:57:11.428Z,13.48
2023-05-17T03:58:14.509Z,13.47
2023-05-17T03:59:17.575Z,13.48
2023-05-17T04:00:24.161Z,13.51
2023-05-17T04:01:27.546Z,13.51
2023-05-17T04:02:30.433Z,13.54
2023-05-17T04:03:33.465Z,13.56
2023-05-17T04:04:36.455Z,13.55
2023-05-17T04:05:41.518Z,13.55
2023-05-17T04:06:44.372Z,13.60
2023-05-17T04:07:47.310Z,13.64
2023-05-17T04:08:50.356Z,13.65
2023-05-17T04:09:53.771Z,13.67
2023-05-17T04:10:56.654Z,13.70
2023-05-17T04:11:59.689Z,13.74
2023-05-17T04:13:02.535Z,13.75
2023-05-17T04:14:05.889Z,13.74
2023-05-17T04:15:09.135Z,13.77
2023-05-17T04:16:12.306Z,13.76
2023-05-17T04:17:16.763Z,13.79
2023-05-17T04:18:20.547Z,13.81
2023-05-17T04:19:23.640Z,13.89
2023-05-17T04:20:26.628Z,13.90
2023-05-17T04:21:29.749Z,13.93
2023-05-17T04:22:33.277Z,13.92
2023-05-17T04:23:36.151Z,13.86
2023-05-17T04:24:39.153Z,13.86
2023-05-17T04:25:42.492Z,13.89
2023-05-17T04:26:45.384Z,13.88
2023-05-17T04:27:48.297Z,13.86
2023-05-17T04:28:51.308Z,13.89
2023-05-17T04:29:54.373Z,13.89
2023-05-17T04:30:57.513Z,13.93
2023-05-17T04:32:00.783Z,13.94
2023-05-17T04:33:03.925Z,13.97
2023-05-17T04:34:07.102Z,13.96
2023-05-17T04:35:10.055Z,14.01
2023-05-17T04:36:13.228Z,14.01
2023-05-17T04:37:17.188Z,14.02
2023-05-17T04:38:20.252Z,14.06
2023-05-17T04:39:23.122Z,14.11
2023-05-17T04:40:26.177Z,14.11
2023-05-17T04:41:29.158Z,14.11
2023-05-17T04:42:32.254Z,14.09
2023-05-17T04:43:35.294Z,14.13
2023-05-17T04:44:38.318Z,14.16
2023-05-17T04:45:41.389Z,14.17
2023-05-17T04:46:46.136Z,14.20
2023-05-17T04:47:50.629Z,14.25
2023-05-17T04:48:53.720Z,14.26
2023-05-17T04:49:56.726Z,14.38
2023-05-17T04:51:04.709Z,14.59
2023-05-17T04:52:07.741Z,14.42
2023-05-17T04:53:11.209Z,14.39
2023-05-17T04:54:14.272Z,14.42
2023-05-17T04:55:17.149Z,14.51
2023-05-17T04:56:20.079Z,14.47
2023-05-17T04:57:23.053Z,14.51
2023-05-17T04:58:26.310Z,14.48
2023-05-17T04:59:29.274Z,14.43
2023-05-17T05:00:32.240Z,14.42
2023-05-17T05:01:35.616Z,14.42
2023-05-17T05:02:39.114Z,14.42
2023-05-17T05:03:42.460Z,14.44
2023-05-17T05:04:45.460Z,14.48
2023-05-17T05:05:48.451Z,14.51
2023-05-17T05:06:52.113Z,14.56
2023-05-17T05:07:54.992Z,14.53
2023-05-17T05:08:57.956Z,14.49
2023-05-17T05:10:01.420Z,14.68
2023-05-17T05:11:04.776Z,14.69
2023-05-17T05:12:08.159Z,14.61
2023-05-17T05:13:11.442Z,14.64
2023-05-17T05:14:14.243Z,14.62
2023-05-17T05:15:17.336Z,14.69
2023-05-17T05:16:20.264Z,14.65
2023-05-17T05:17:23.234Z,14.65
2023-05-17T05:18:26.263Z,14.74
2023-05-17T05:19:29.243Z,14.69
2023-05-17T05:20:32.394Z,14.60
2023-05-17T05:21:35.290Z,14.56
2023-05-17T05:22:38.221Z,14.48
2023-05-17T05:23:41.415Z,14.46
2023-05-17T05:24:44.272Z,14.50
2023-05-17T05:25:47.688Z,14.76
2023-05-17T05:26:50.584Z,14.78
2023-05-17T05:27:53.538Z,14.73
2023-05-17T05:28:56.626Z,14.70
2023-05-17T05:29:59.441Z,14.61
2023-05-17T05:31:02.435Z,14.67
2023-05-17T05:32:05.685Z,14.78
2023-05-17T05:33:08.621Z,14.77
2023-05-17T05:34:11.637Z,14.72
2023-05-17T05:35:14.470Z,14.60
2023-05-17T05:36:17.511Z,14.56
2023-05-17T05:37:20.895Z,14.55
2023-05-17T05:38:24.047Z,14.60
2023-05-17T05:39:28.201Z,14.79
2023-05-17T05:40:31.220Z,14.75
2023-05-17T05:41:34.379Z,14.80
2023-05-17T05:42:37.630Z,14.78
2023-05-17T05:43:40.564Z,14.84
2023-05-17T05:44:43.432Z,14.75
2023-05-17T05:45:47.502Z,14.77
2023-05-17T05:46:50.326Z,14.76
2023-05-17T05:47:53.438Z,14.88
2023-05-17T05:48:56.510Z,14.88
2023-05-17T05:49:59.478Z,14.95
2023-05-17T05:51:02.407Z,14.96
2023-05-17T05:52:05.347Z,14.81
2023-05-17T05:53:18.119Z,14.76
2023-05-17T05:54:21.658Z,14.86
2023-05-17T05:55:24.683Z,14.85
2023-05-17T05:56:28.365Z,14.73
2023-05-17T05:57:31.344Z,14.62
2023-05-17T05:58:34.260Z,14.72
2023-05-17T05:59:37.224Z,14.70
2023-05-17T06:00:40.097Z,14.52
2023-05-17T06:01:44.041Z,14.43
2023-05-17T06:02:47.149Z,14.43
2023-05-17T06:03:50.043Z,14.39
2023-05-17T06:04:52.811Z,14.39
2023-05-17T06:05:55.861Z,14.41
2023-05-17T06:06:59.060Z,14.51
2023-05-17T06:08:02.120Z,14.41
2023-05-17T06:09:07.300Z,14.35
2023-05-17T06:10:10.764Z,14.47
2023-05-17T06:11:18.846Z,14.44
2023-05-17T06:12:21.845Z,14.44
2023-05-17T06:13:24.825Z,14.41
2023-05-17T06:14:27.820Z,14.44
2023-05-17T06:15:31.741Z,14.41
2023-05-17T06:16:34.979Z,14.41
2023-05-17T06:17:38.019Z,14.40
2023-05-17T06:18:41.182Z,14.35
2023-05-17T06:19:44.322Z,14.48
2023-05-17T06:20:47.874Z,14.51
2023-05-17T06:21:50.782Z,14.46
2023-05-17T06:22:53.666Z,14.47
2023-05-17T06:23:56.603Z,14.65
2023-05-17T06:24:59.481Z,14.66
2023-05-17T06:26:02.664Z,14.55
2023-05-17T06:27:05.853Z,14.47
2023-05-17T06:28:09.515Z,14.38
2023-05-17T06:29:12.559Z,14.32
2023-05-17T06:30:15.724Z,14.32
2023-05-17T06:31:19.749Z,14.33
2023-05-17T06:32:23.950Z,14.39
2023-05-17T06:33:26.859Z,14.33
2023-05-17T06:34:29.865Z,14.31
2023-05-17T06:35:43.747Z,14.37
2023-05-17T06:36:56.025Z,14.45
2023-05-17T06:37:58.968Z,14.39
2023-05-17T06:39:01.779Z,14.33
2023-05-17T06:40:16.646Z,14.36
2023-05-17T06:41:20.170Z,14.35
2023-05-17T06:42:22.993Z,14.31
2023-05-17T06:43:26.072Z,14.29
2023-05-17T06:44:28.985Z,14.37
2023-05-17T06:45:32.054Z,14.45
2023-05-17T06:46:35.040Z,14.42
2023-05-17T06:47:38.216Z,14.38
2023-05-17T06:48:41.384Z,14.41
2023-05-17T06:49:44.430Z,14.58
2023-05-17T06:50:47.475Z,14.48
2023-05-17T06:51:50.515Z,14.42
2023-05-17T06:52:53.389Z,14.43
2023-05-17T06:53:56.328Z,14.39
2023-05-17T06:54:59.159Z,14.53
2023-05-17T06:56:02.240Z,14.56
2023-05-17T06:57:05.954Z,14.62
2023-05-17T06:58:09.001Z,14.65
2023-05-17T06:59:12.084Z,14.56
2023-05-17T07:00:15.623Z,14.63
2023-05-17T07:01:19.086Z,14.66
2023-05-17T07:02:22.069Z,14.75
2023-05-17T07:03:24.966Z,14.79
2023-05-17T07:04:28.036Z,14.83
2023-05-17T07:05:31.228Z,14.70
2023-05-17T07:06:34.540Z,14.62
2023-05-17T07:07:37.588Z,14.78
2023-05-17T07:08:40.836Z,14.89
2023-05-17T07:09:43.687Z,14.71
2023-05-17T07:10:46.590Z,14.59
2023-05-17T07:11:49.650Z,14.63
2023-05-17T07:12:53.449Z,14.62
2023-05-17T07:13:56.328Z,14.57
2023-05-17T07:14:59.260Z,14.49
2023-05-17T07:16:02.214Z,14.59
2023-05-17T07:17:05.195Z,14.52
2023-05-17T07:18:08.220Z,14.77
2023-05-17T07:19:11.359Z,14.88
2023-05-17T07:20:15.097Z,14.70
2023-05-17T07:21:18.150Z,14.54
2023-05-17T07:22:21.072Z,14.51
2023-05-17T07:23:24.021Z,14.53
2023-05-17T07:24:26.935Z,14.50
2023-05-17T07:25:30.024Z,14.53
2023-05-17T07:26:33.244Z,14.55
2023-05-17T07:27:36.259Z,14.70
2023-05-17T07:28:39.249Z,14.75
2023-05-17T07:29:42.885Z,14.74
2023-05-17T07:30:45.938Z,14.78
2023-05-17T07:31:48.855Z,14.85
2023-05-17T07:32:52.122Z,14.77
2023-05-17T07:33:54.997Z,14.62
2023-05-17T07:34:57.834Z,14.71
2023-05-17T07:36:00.812Z,14.68
2023-05-17T07:37:03.822Z,14.61
2023-05-17T07:38:06.686Z,14.56
2023-05-17T07:39:10.353Z,14.59
2023-05-17T07:40:13.724Z,14.50
2023-05-17T07:41:17.380Z,14.54
2023-05-17T07:42:20.146Z,14.56
2023-05-17T07:43:23.299Z,14.57
2023-05-17T07:44:26.498Z,14.62
2023-05-17T07:45:29.700Z,14.57
2023-05-17T07:46:33.034Z,14.68
2023-05-17T07:47:36.352Z,14.61
2023-05-17T07:48:39.425Z,14.66
2023-05-17T07:49:42.563Z,14.60
2023-05-17T07:50:47.095Z,14.56
2023-05-17T07:51:50.403Z,14.55
2023-05-17T07:52:54.146Z,14.59
2023-05-17T07:53:57.055Z,14.63
2023-05-17T07:55:00.049Z,14.70
2023-05-17T07:56:03.005Z,14.70
2023-05-17T07:57:06.358Z,14.53
2023-05-17T07:58:12.430Z,14.50
2023-05-17T07:59:15.701Z,14.47
2023-05-17T08:00:19.697Z,14.53
2023-05-17T08:01:23.965Z,14.54
2023-05-17T08:02:26.910Z,14.67
2023-05-17T08:03:31.162Z,14.76
2023-05-17T08:04:34.144Z,14.77
2023-05-17T08:05:37.055Z,14.73
2023-05-17T08:06:40.367Z,14.67
2023-05-17T08:07:43.313Z,14.63
2023-05-17T08:08:46.295Z,14.72
2023-05-17T08:09:51.860Z,14.83
2023-05-17T08:10:54.825Z,14.81
2023-05-17T08:11:59.997Z,14.74
2023-05-17T08:13:03.803Z,14.76
2023-05-17T08:14:06.760Z,14.87
2023-05-17T08:15:09.987Z,14.81
2023-05-17T08:16:14.667Z,14.70
2023-05-17T08:17:18.056Z,14.78
2023-05-17T08:18:21.647Z,14.67
2023-05-17T08:19:25.054Z,14.54
2023-05-17T08:20:28.170Z,14.45
2023-05-17T08:21:31.151Z,14.44
2023-05-17T08:22:34.169Z,14.46
2023-05-17T08:23:37.158Z,14.49
2023-05-17T08:24:40.228Z,14.52
2023-05-17T08:25:43.352Z,14.79
2023-05-17T08:26:46.249Z,14.83
2023-05-17T08:27:49.045Z,14.76
2023-05-17T08:28:51.878Z,14.60
2023-05-17T08:29:55.716Z,14.55
2023-05-17T08:30:58.723Z,14.63
2023-05-17T08:32:01.832Z,14.70
2023-05-17T08:33:04.696Z,14.58
2023-05-17T08:34:07.867Z,14.52
2023-05-17T08:35:11.560Z,14.53
2023-05-17T08:36:14.521Z,14.65
2023-05-17T08:37:18.659Z,14.55
2023-05-17T08:38:24.503Z,14.77
2023-05-17T08:39:27.350Z,14.76
2023-05-17T08:40:30.631Z,14.61
2023-05-17T08:41:33.724Z,14.60
2023-05-17T08:42:37.574Z,14.61
2023-05-17T08:43:40.855Z,14.67
2023-05-17T08:44:44.514Z,14.63
2023-05-17T08:45:50.737Z,14.68
2023-05-17T08:46:55.581Z,14.71
2023-05-17T08:47:59.344Z,14.68
2023-05-17T08:49:06.793Z,14.77
2023-05-17T08:50:11.453Z,14.69
2023-05-17T08:51:15.243Z,14.60
2023-05-17T08:52:18.636Z,14.69
2023-05-17T08:53:22.223Z,14.62
2023-05-17T08:54:28.375Z,14.70
2023-05-17T08:55:33.503Z,14.68
2023-05-17T08:56:39.866Z,14.70
2023-05-17T08:57:43.360Z,14.70
2023-05-17T08:58:56.641Z,14.63
2023-05-17T09:00:01.226Z,14.56
2023-05-17T09:01:04.903Z,14.63
2023-05-17T09:02:08.626Z,14.74
2023-05-17T09:03:16.201Z,14.75
2023-05-17T09:04:19.416Z,14.77
2023-05-17T09:05:22.280Z,14.68
2023-05-17T09:06:25.299Z,14.69
2023-05-17T09:07:28.121Z,14.69
2023-05-17T09:08:33.107Z,14.67
2023-05-17T09:09:36.030Z,14.62
2023-05-17T09:10:38.895Z,14.63
2023-05-17T09:11:42.020Z,14.63
2023-05-17T09:12:45.350Z,14.64
2023-05-17T09:13:48.356Z,14.56
2023-05-17T09:14:51.388Z,14.54
2023-05-17T09:15:54.787Z,14.57
2023-05-17T09:16:58.361Z,14.73
2023-05-17T09:18:01.435Z,14.85
2023-05-17T09:19:09.350Z,14.84
2023-05-17T09:20:12.437Z,14.72
2023-05-17T09:21:16.162Z,14.67
2023-05-17T09:22:19.899Z,14.77
2023-05-17T09:23:23.632Z,14.82
2023-05-17T09:24:30.578Z,14.80
2023-05-17T09:25:33.739Z,14.72
2023-05-17T09:26:46.507Z,14.85
2023-05-17T09:27:53.066Z,14.80
2023-05-17T09:28:56.048Z,14.89
2023-05-17T09:29:59.050Z,14.91
2023-05-17T09:31:07.447Z,14.91
2023-05-17T09:32:23.060Z,14.88
2023-05-17T09:33:26.191Z,14.98
2023-05-17T09:34:29.195Z,15.17
2023-05-17T09:35:32.178Z,15.29
2023-05-17T09:36:43.279Z,15.43
2023-05-17T09:37:47.427Z,15.29
2023-05-17T09:38:55.517Z,15.41
2023-05-17T09:39:58.569Z,15.36
2023-05-17T09:41:02.868Z,15.30
2023-05-17T09:42:06.300Z,15.07
2023-05-17T09:43:12.291Z,15.14
2023-05-17T09:44:15.899Z,15.29
2023-05-17T09:45:24.245Z,15.28
2023-05-17T09:46:27.928Z,15.40
2023-05-17T09:47:31.721Z,15.38
2023-05-17T09:48:38.885Z,15.29
2023-05-17T09:49:42.108Z,15.31
2023-05-17T09:50:52.317Z,15.23
2023-05-17T09:51:55.537Z,15.25
2023-05-17T09:52:58.388Z,15.10
2023-05-17T09:54:01.776Z,15.15
2023-05-17T09:55:04.869Z,15.07
2023-05-17T09:56:08.300Z,15.08
2023-05-17T09:57:11.351Z,15.08
2023-05-17T09:58:14.574Z,15.02
2023-05-17T09:59:17.497Z,14.95
2023-05-17T10:00:22.993Z,14.95
2023-05-17T10:01:28.503Z,14.86
2023-05-17T10:02:35.638Z,14.72
2023-05-17T10:03:39.439Z,14.73
2023-05-17T10:04:43.919Z,14.86
2023-05-17T10:05:47.558Z,14.84
2023-05-17T10:06:52.511Z,14.79
2023-05-17T10:07:56.792Z,14.70
2023-05-17T10:09:02.713Z,14.65
2023-05-17T10:10:06.898Z,14.82
2023-05-17T10:11:11.523Z,14.75
2023-05-17T10:12:18.431Z,14.59
2023-05-17T10:13:25.237Z,14.70
2023-05-17T10:14:34.539Z,14.51
2023-05-17T10:15:38.922Z,14.48
2023-05-17T10:16:43.340Z,14.61
2023-05-17T10:17:47.615Z,14.68
2023-05-17T10:18:51.282Z,14.65
2023-05-17T10:19:55.294Z,14.71
2023-05-17T10:20:59.504Z,14.70
2023-05-17T10:23:12.407Z,14.68
2023-05-17T10:24:16.785Z,14.46
2023-05-17T10:25:20.141Z,14.46
2023-05-17T10:26:23.416Z,14.33
2023-05-17T10:27:27.138Z,14.27
2023-05-17T10:28:30.890Z,14.29
2023-05-17T10:29:37.296Z,14.16
2023-05-17T10:30:41.791Z,14.03
2023-05-17T10:31:46.214Z,14.03
2023-05-17T10:32:51.709Z,14.05
2023-05-17T10:33:55.101Z,14.11
2023-05-17T10:35:10.488Z,14.15
2023-05-17T10:36:18.008Z,13.99
2023-05-17T10:37:23.375Z,14.01
2023-05-17T10:38:38.676Z,14.01
2023-05-17T10:39:47.218Z,14.09
2023-05-17T10:40:52.857Z,14.10
2023-05-17T10:42:13.780Z,14.03
2023-05-17T10:43:19.058Z,14.06
2023-05-17T10:44:22.786Z,14.06
2023-05-17T10:45:27.527Z,14.17
2023-05-17T10:46:31.917Z,14.06
2023-05-17T10:47:35.374Z,14.14
2023-05-17T10:48:39.625Z,14.24
2023-05-17T10:49:48.221Z,14.29
2023-05-17T10:51:01.571Z,14.21
2023-05-17T10:52:17.186Z,14.32
2023-05-17T10:53:20.249Z,14.25
2023-05-17T10:54:35.371Z,14.19
2023-05-17T10:55:41.956Z,14.40
2023-05-17T10:56:53.111Z,14.62
2023-05-17T10:58:11.109Z,14.53
2023-05-17T10:59:19.022Z,14.48
2023-05-17T11:00:28.052Z,14.32
2023-05-17T11:02:06.212Z,14.25
2023-05-17T11:03:19.661Z,14.17
2023-05-17T11:04:26.309Z,14.30
2023-05-17T11:05:29.816Z,14.32
2023-05-17T11:06:36.866Z,14.38
2023-05-17T11:07:41.300Z,14.31
2023-05-17T11:09:09.308Z,14.37
2023-05-17T11:10:14.376Z,14.38
2023-05-17T11:11:18.861Z,14.50
2023-05-17T11:12:38.556Z,14.59
2023-05-17T11:13:52.719Z,14.56
2023-05-17T11:14:56.515Z,14.60
2023-05-17T11:16:08.059Z,14.39
2023-05-17T11:17:15.243Z,14.32
2023-05-17T11:18:29.527Z,14.30
2023-05-17T11:19:34.248Z,14.26
2023-05-17T11:20:37.835Z,14.24
2023-05-17T11:21:48.233Z,14.07
2023-05-17T11:22:56.355Z,14.09
2023-05-17T11:24:06.706Z,14.00
2023-05-17T11:25:14.737Z,14.01
2023-05-17T11:26:29.719Z,13.91
2023-05-17T11:27:38.422Z,14.04
2023-05-17T11:28:41.382Z,13.96
2023-05-17T11:29:50.366Z,14.01
2023-05-17T11:31:01.180Z,13.83
2023-05-17T11:32:06.435Z,13.76
2023-05-17T11:33:17.354Z,13.77
2023-05-17T11:34:34.403Z,13.76
2023-05-17T11:35:41.688Z,13.73
2023-05-17T11:36:55.465Z,13.61
2023-05-17T11:38:18.170Z,13.63
2023-05-17T11:39:25.616Z,13.67
2023-05-17T11:40:49.434Z,13.74
2023-05-17T11:41:54.079Z,13.73
2023-05-17T11:43:19.412Z,13.71
2023-05-17T11:44:35.179Z,13.69
2023-05-17T11:45:46.288Z,13.56
2023-05-17T11:46:50.689Z,13.54
2023-05-17T11:47:54.254Z,13.64
2023-05-17T11:48:58.116Z,13.70
2023-05-17T11:50:03.409Z,13.69
2023-05-17T11:51:07.068Z,13.55
2023-05-17T11:52:10.220Z,13.67
2023-05-17T11:53:13.892Z,13.75
2023-05-17T11:54:17.004Z,13.79
2023-05-17T11:55:20.073Z,13.61
2023-05-17T11:56:41.875Z,13.71
2023-05-17T11:57:46.417Z,13.81
2023-05-17T11:58:53.197Z,13.58
2023-05-17T12:00:05.526Z,13.69
2023-05-17T12:01:09.364Z,13.61
2023-05-17T12:02:26.823Z,13.64
2023-05-17T12:03:31.853Z,13.78
2023-05-17T12:04:38.758Z,13.79
2023-05-17T12:05:41.775Z,13.72
2023-05-17T12:06:45.263Z,13.54
2023-05-17T12:07:50.499Z,13.70
2023-05-17T12:08:53.900Z,13.72
2023-05-17T12:09:57.053Z,13.75
2023-05-17T12:11:00.857Z,13.70
2023-05-17T12:12:05.107Z,13.74
2023-05-17T12:13:08.034Z,13.75
2023-05-17T12:14:15.218Z,13.86
2023-05-17T12:15:21.244Z,13.98
2023-05-17T12:16:24.870Z,14.05
2023-05-17T12:17:43.629Z,13.88
2023-05-17T12:18:51.907Z,13.97
2023-05-17T12:19:55.524Z,13.87
2023-05-17T12:21:00.415Z,14.03
2023-05-17T12:22:13.802Z,14.08
2023-05-17T12:23:16.741Z,14.11
2023-05-17T12:24:19.757Z,14.11
2023-05-17T12:25:25.941Z,14.15
2023-05-17T12:26:28.996Z,14.10
2023-05-17T12:27:32.083Z,14.08
2023-05-17T12:28:42.488Z,14.08
2023-05-17T12:29:45.366Z,14.08
2023-05-17T12:30:58.334Z,13.86
2023-05-17T12:32:01.970Z,13.94
2023-05-17T12:33:05.725Z,13.93
2023-05-17T12:34:10.150Z,14.00
2023-05-17T12:35:13.498Z,14.04
2023-05-17T12:36:17.430Z,14.21
2023-05-17T12:37:20.653Z,14.08
2023-05-17T12:38:25.428Z,14.27
2023-05-17T12:39:28.439Z,14.26
2023-05-17T12:40:31.563Z,14.31
2023-05-17T12:41:34.881Z,14.30
2023-05-17T12:42:40.968Z,14.38
2023-05-17T12:43:47.026Z,14.52
2023-05-17T12:44:50.072Z,14.70
2023-05-17T12:46:03.779Z,14.74
2023-05-17T12:47:07.241Z,14.72
2023-05-17T12:48:10.347Z,14.69
2023-05-17T12:49:13.808Z,14.76
2023-05-17T12:50:31.866Z,14.90
2023-05-17T12:51:46.602Z,14.94
2023-05-17T12:52:49.784Z,14.99
2023-05-17T12:53:54.995Z,15.16
2023-05-17T12:54:59.635Z,15.00
2023-05-17T12:56:02.630Z,14.99
2023-05-17T12:57:14.382Z,14.94
2023-05-17T12:58:17.551Z,14.94
2023-05-17T12:59:21.421Z,14.92
2023-05-17T13:00:25.203Z,15.02
2023-05-17T13:01:36.412Z,14.86
2023-05-17T13:02:43.657Z,14.86
2023-05-17T13:03:51.671Z,14.81
2023-05-17T13:04:55.100Z,14.89
2023-05-17T13:05:59.569Z,14.90
2023-05-17T13:07:05.222Z,14.97
2023-05-17T13:08:24.842Z,14.72
2023-05-17T13:09:33.573Z,14.69
2023-05-17T13:10:36.698Z,14.62
2023-05-17T13:11:41.689Z,14.74
2023-05-17T13:12:54.652Z,14.73
2023-05-17T13:13:57.681Z,14.79
2023-05-17T13:15:00.950Z,14.68
2023-05-17T13:16:03.957Z,14.69
2023-05-17T13:17:09.815Z,14.55
2023-05-17T13:18:16.291Z,14.60
2023-05-17T13:19:19.434Z,14.46
2023-05-17T13:20:22.595Z,14.40
2023-05-17T13:21:25.759Z,14.30
2023-05-17T13:22:28.805Z,14.40
2023-05-17T13:23:31.696Z,14.48
2023-05-17T13:24:36.711Z,14.47
2023-05-17T13:25:39.559Z,14.54
2023-05-17T13:26:42.523Z,14.32
2023-05-17T13:27:53.322Z,14.26
2023-05-17T13:28:56.779Z,14.11
2023-05-17T13:29:59.605Z,14.07
2023-05-17T13:31:02.649Z,13.94
2023-05-17T13:32:06.931Z,14.06
2023-05-17T13:33:10.028Z,14.08
2023-05-17T13:34:13.028Z,13.98
2023-05-17T13:35:15.942Z,13.88
2023-05-17T13:36:18.821Z,13.98
2023-05-17T13:37:22.505Z,13.84
2023-05-17T13:38:25.408Z,13.85
2023-05-17T13:39:28.602Z,13.81
2023-05-17T13:40:31.501Z,13.94
2023-05-17T13:41:34.531Z,13.99
2023-05-17T13:42:37.568Z,14.01
2023-05-17T13:43:40.859Z,14.08
2023-05-17T13:44:43.977Z,14.17
2023-05-17T13:45:51.243Z,14.13
2023-05-17T13:46:54.034Z,14.19
2023-05-17T13:47:56.982Z,14.03
2023-05-17T13:49:00.203Z,13.95
2023-05-17T13:50:04.293Z,14.03
2023-05-17T13:51:07.973Z,14.11
2023-05-17T13:52:13.157Z,14.08
2023-05-17T13:53:16.197Z,14.14
2023-05-17T13:54:25.238Z,14.30
2023-05-17T13:55:28.515Z,14.32
2023-05-17T13:56:31.550Z,14.25
2023-05-17T13:57:34.549Z,14.15